sensor_id;sensor_type;location;lat;lon;timestamp;P1;durP1;ratioP1;P2;durP2;ratioP2
22660;SDS011;11497;52.222;21.246;2023-06-05T00:00:46;19.00;;;8.63;;
22660;SDS011;11497;52.222;21.246;2023-06-05T00:03:34;19.05;;;8.07;;
22660;SDS011;11497;52.222;21.246;2023-06-05T00:06:06;25.45;;;8.85;;
22660;SDS011;11497;52.222;21.246;2023-06-05T00:08:34;22.00;;;8.40;;
22660;SDS011;11497;52.222;21.246;2023-06-05T00:11:01;21.45;;;8.00;;
22660;SDS011;11497;52.222;21.246;2023-06-05T00:13:29;26.55;;;8.10;;
22660;SDS011;11497;52.222;21.246;2023-06-05T00:15:57;24.83;;;8.32;;
22660;SDS011;11497;52.222;21.246;2023-06-05T00:18:25;13.80;;;7.53;;
22660;SDS011;11497;52.222;21.246;2023-06-05T00:20:52;22.17;;;8.40;;
22660;SDS011;11497;52.222;21.246;2023-06-05T00:23:20;16.90;;;8.35;;
22660;SDS011;11497;52.222;21.246;2023-06-05T00:25:48;18.25;;;8.00;;
22660;SDS011;11497;52.222;21.246;2023-06-05T00:28:16;16.42;;;8.43;;
22660;SDS011;11497;52.222;21.246;2023-06-05T00:30:45;16.48;;;8.25;;
22660;SDS011;11497;52.222;21.246;2023-06-05T00:33:13;12.43;;;8.00;;
22660;SDS011;11497;52.222;21.246;2023-06-05T00:35:41;16.00;;;7.72;;
22660;SDS011;11497;52.222;21.246;2023-06-05T00:38:09;18.13;;;7.88;;
22660;SDS011;11497;52.222;21.246;2023-06-05T00:40:37;21.70;;;8.15;;
22660;SDS011;11497;52.222;21.246;2023-06-05T00:43:05;17.55;;;7.53;;
22660;SDS011;11497;52.222;21.246;2023-06-05T00:45:33;15.30;;;7.38;;
22660;SDS011;11497;52.222;21.246;2023-06-05T00:48:02;18.20;;;7.55;;
22660;SDS011;11497;52.222;21.246;2023-06-05T00:50:32;19.83;;;7.05;;
22660;SDS011;11497;52.222;21.246;2023-06-05T00:53:01;17.95;;;7.18;;
22660;SDS011;11497;52.222;21.246;2023-06-05T00:55:30;22.90;;;7.75;;
22660;SDS011;11497;52.222;21.246;2023-06-05T00:57:58;16.27;;;7.55;;
22660;SDS011;11497;52.222;21.246;2023-06-05T01:00:30;21.15;;;7.22;;
22660;SDS011;11497;52.222;21.246;2023-06-05T01:02:59;21.23;;;7.75;;
22660;SDS011;11497;52.222;21.246;2023-06-05T01:05:28;14.70;;;7.53;;
22660;SDS011;11497;52.222;21.246;2023-06-05T01:07:56;14.45;;;7.68;;
22660;SDS011;11497;52.222;21.246;2023-06-05T01:10:24;17.77;;;7.45;;
22660;SDS011;11497;52.222;21.246;2023-06-05T01:13:03;16.25;;;7.75;;
22660;SDS011;11497;52.222;21.246;2023-06-05T01:15:37;16.45;;;7.30;;
22660;SDS011;11497;52.222;21.246;2023-06-05T01:18:06;18.98;;;7.30;;
22660;SDS011;11497;52.222;21.246;2023-06-05T01:20:36;20.02;;;8.40;;
22660;SDS011;11497;52.222;21.246;2023-06-05T01:23:07;17.80;;;8.27;;
22660;SDS011;11497;52.222;21.246;2023-06-05T01:25:35;13.82;;;7.63;;
22660;SDS011;11497;52.222;21.246;2023-06-05T01:28:43;24.90;;;8.30;;
22660;SDS011;11497;52.222;21.246;2023-06-05T01:31:13;21.13;;;7.60;;
22660;SDS011;11497;52.222;21.246;2023-06-05T01:33:49;16.02;;;7.60;;
22660;SDS011;11497;52.222;21.246;2023-06-05T01:36:23;12.65;;;7.30;;
22660;SDS011;11497;52.222;21.246;2023-06-05T01:38:51;16.05;;;7.35;;
22660;SDS011;11497;52.222;21.246;2023-06-05T01:41:21;16.42;;;7.55;;
22660;SDS011;11497;52.222;21.246;2023-06-05T01:43:53;16.30;;;7.78;;
22660;SDS011;11497;52.222;21.246;2023-06-05T01:46:23;19.67;;;7.28;;
22660;SDS011;11497;52.222;21.246;2023-06-05T01:48:51;14.00;;;6.82;;
22660;SDS011;11497;52.222;21.246;2023-06-05T01:51:21;14.98;;;7.80;;
22660;SDS011;11497;52.222;21.246;2023-06-05T01:53:49;15.02;;;8.00;;
22660;SDS011;11497;52.222;21.246;2023-06-05T01:56:16;18.17;;;8.55;;
22660;SDS011;11497;52.222;21.246;2023-06-05T01:58:51;18.58;;;8.02;;
22660;SDS011;11497;52.222;21.246;2023-06-05T02:01:19;19.05;;;7.72;;
22660;SDS011;11497;52.222;21.246;2023-06-05T02:03:50;16.17;;;7.82;;
22660;SDS011;11497;52.222;21.246;2023-06-05T02:06:20;14.93;;;7.60;;
22660;SDS011;11497;52.222;21.246;2023-06-05T02:08:49;13.70;;;7.35;;
22660;SDS011;11497;52.222;21.246;2023-06-05T02:11:17;16.90;;;8.30;;
22660;SDS011;11497;52.222;21.246;2023-06-05T02:13:45;21.65;;;8.02;;
22660;SDS011;11497;52.222;21.246;2023-06-05T02:16:16;19.73;;;7.15;;
22660;SDS011;11497;52.222;21.246;2023-06-05T02:18:44;17.60;;;7.82;;
22660;SDS011;11497;52.222;21.246;2023-06-05T02:21:15;13.73;;;7.07;;
22660;SDS011;11497;52.222;21.246;2023-06-05T02:23:43;16.10;;;7.13;;
22660;SDS011;11497;52.222;21.246;2023-06-05T02:26:12;16.27;;;7.47;;
22660;SDS011;11497;52.222;21.246;2023-06-05T02:28:40;19.60;;;7.53;;
22660;SDS011;11497;52.222;21.246;2023-06-05T02:31:07;19.58;;;8.32;;
22660;SDS011;11497;52.222;21.246;2023-06-05T02:33:36;18.90;;;8.00;;
22660;SDS011;11497;52.222;21.246;2023-06-05T02:36:04;16.52;;;7.38;;
22660;SDS011;11497;52.222;21.246;2023-06-05T02:38:32;22.95;;;7.80;;
22660;SDS011;11497;52.222;21.246;2023-06-05T02:41:00;16.15;;;7.55;;
22660;SDS011;11497;52.222;21.246;2023-06-05T02:43:28;18.92;;;7.70;;
22660;SDS011;11497;52.222;21.246;2023-06-05T02:45:56;16.63;;;8.15;;
22660;SDS011;11497;52.222;21.246;2023-06-05T02:48:24;22.50;;;7.88;;
22660;SDS011;11497;52.222;21.246;2023-06-05T02:50:54;17.92;;;8.23;;
22660;SDS011;11497;52.222;21.246;2023-06-05T02:53:22;19.75;;;7.63;;
22660;SDS011;11497;52.222;21.246;2023-06-05T02:55:50;16.73;;;6.72;;
22660;SDS011;11497;52.222;21.246;2023-06-05T02:58:20;22.45;;;9.10;;
22660;SDS011;11497;52.222;21.246;2023-06-05T03:00:54;23.17;;;9.07;;
22660;SDS011;11497;52.222;21.246;2023-06-05T03:03:23;19.25;;;9.30;;
22660;SDS011;11497;52.222;21.246;2023-06-05T03:05:57;25.42;;;9.40;;
22660;SDS011;11497;52.222;21.246;2023-06-05T03:08:33;25.50;;;9.48;;
22660;SDS011;11497;52.222;21.246;2023-06-05T03:11:03;27.13;;;8.95;;
22660;SDS011;11497;52.222;21.246;2023-06-05T03:13:32;28.30;;;9.25;;
22660;SDS011;11497;52.222;21.246;2023-06-05T03:15:59;19.13;;;8.73;;
22660;SDS011;11497;52.222;21.246;2023-06-05T03:18:31;19.65;;;8.07;;
22660;SDS011;11497;52.222;21.246;2023-06-05T03:20:59;20.42;;;9.20;;
22660;SDS011;11497;52.222;21.246;2023-06-05T03:23:28;25.05;;;8.43;;
22660;SDS011;11497;52.222;21.246;2023-06-05T03:25:59;23.60;;;9.23;;
22660;SDS011;11497;52.222;21.246;2023-06-05T03:28:29;22.55;;;8.38;;
22660;SDS011;11497;52.222;21.246;2023-06-05T03:31:04;22.60;;;8.85;;
22660;SDS011;11497;52.222;21.246;2023-06-05T03:33:36;23.90;;;8.02;;
22660;SDS011;11497;52.222;21.246;2023-06-05T03:36:04;24.90;;;8.85;;
22660;SDS011;11497;52.222;21.246;2023-06-05T03:38:34;17.67;;;8.45;;
22660;SDS011;11497;52.222;21.246;2023-06-05T03:41:03;19.00;;;8.80;;
22660;SDS011;11497;52.222;21.246;2023-06-05T03:43:31;16.83;;;8.25;;
22660;SDS011;11497;52.222;21.246;2023-06-05T03:45:59;20.95;;;8.15;;
22660;SDS011;11497;52.222;21.246;2023-06-05T03:48:28;24.80;;;8.52;;
22660;SDS011;11497;52.222;21.246;2023-06-05T03:50:56;18.33;;;7.97;;
22660;SDS011;11497;52.222;21.246;2023-06-05T03:53:24;21.20;;;8.63;;
22660;SDS011;11497;52.222;21.246;2023-06-05T03:55:56;18.50;;;7.75;;
22660;SDS011;11497;52.222;21.246;2023-06-05T03:58:33;16.65;;;6.97;;
22660;SDS011;11497;52.222;21.246;2023-06-05T04:01:02;16.42;;;7.22;;
22660;SDS011;11497;52.222;21.246;2023-06-05T04:03:30;16.05;;;7.03;;
22660;SDS011;11497;52.222;21.246;2023-06-05T04:05:58;16.65;;;7.30;;
22660;SDS011;11497;52.222;21.246;2023-06-05T04:08:27;21.15;;;7.43;;
22660;SDS011;11497;52.222;21.246;2023-06-05T04:10:55;18.60;;;6.85;;
22660;SDS011;11497;52.222;21.246;2023-06-05T04:13:23;13.07;;;5.25;;
22660;SDS011;11497;52.222;21.246;2023-06-05T04:15:51;14.52;;;5.85;;
22660;SDS011;11497;52.222;21.246;2023-06-05T04:18:20;13.82;;;5.40;;
22660;SDS011;11497;52.222;21.246;2023-06-05T04:20:51;10.52;;;5.00;;
22660;SDS011;11497;52.222;21.246;2023-06-05T04:23:19;11.52;;;5.40;;
22660;SDS011;11497;52.222;21.246;2023-06-05T04:25:48;14.15;;;5.70;;
22660;SDS011;11497;52.222;21.246;2023-06-05T04:28:16;12.73;;;6.30;;
22660;SDS011;11497;52.222;21.246;2023-06-05T04:30:45;12.88;;;5.32;;
22660;SDS011;11497;52.222;21.246;2023-06-05T04:33:16;11.98;;;5.28;;
22660;SDS011;11497;52.222;21.246;2023-06-05T04:35:45;14.70;;;4.68;;
22660;SDS011;11497;52.222;21.246;2023-06-05T04:38:13;13.88;;;4.55;;
22660;SDS011;11497;52.222;21.246;2023-06-05T04:40:42;12.27;;;4.57;;
22660;SDS011;11497;52.222;21.246;2023-06-05T04:43:10;18.95;;;4.75;;
22660;SDS011;11497;52.222;21.246;2023-06-05T04:45:38;6.30;;;4.03;;
22660;SDS011;11497;52.222;21.246;2023-06-05T04:48:10;12.25;;;4.00;;
22660;SDS011;11497;52.222;21.246;2023-06-05T04:50:37;7.57;;;4.10;;
22660;SDS011;11497;52.222;21.246;2023-06-05T04:53:09;7.45;;;3.90;;
22660;SDS011;11497;52.222;21.246;2023-06-05T04:55:39;9.38;;;3.55;;
22660;SDS011;11497;52.222;21.246;2023-06-05T04:58:07;10.05;;;3.50;;
22660;SDS011;11497;52.222;21.246;2023-06-05T05:00:34;7.85;;;4.28;;
22660;SDS011;11497;52.222;21.246;2023-06-05T05:03:05;7.88;;;3.67;;
22660;SDS011;11497;52.222;21.246;2023-06-05T05:05:33;8.55;;;3.83;;
22660;SDS011;11497;52.222;21.246;2023-06-05T05:08:04;6.65;;;3.67;;
22660;SDS011;11497;52.222;21.246;2023-06-05T05:10:31;7.00;;;3.72;;
22660;SDS011;11497;52.222;21.246;2023-06-05T05:12:59;7.32;;;2.90;;
22660;SDS011;11497;52.222;21.246;2023-06-05T05:15:29;6.47;;;2.80;;
22660;SDS011;11497;52.222;21.246;2023-06-05T05:17:58;5.47;;;2.88;;
22660;SDS011;11497;52.222;21.246;2023-06-05T05:20:27;5.35;;;2.60;;
22660;SDS011;11497;52.222;21.246;2023-06-05T05:22:56;6.35;;;2.67;;
22660;SDS011;11497;52.222;21.246;2023-06-05T05:25:25;5.50;;;2.55;;
22660;SDS011;11497;52.222;21.246;2023-06-05T05:27:53;11.00;;;3.15;;
22660;SDS011;11497;52.222;21.246;2023-06-05T05:30:21;8.27;;;3.10;;
22660;SDS011;11497;52.222;21.246;2023-06-05T05:32:49;5.88;;;2.72;;
22660;SDS011;11497;52.222;21.246;2023-06-05T05:35:17;9.95;;;2.70;;
22660;SDS011;11497;52.222;21.246;2023-06-05T05:37:46;5.80;;;2.78;;
22660;SDS011;11497;52.222;21.246;2023-06-05T05:40:14;10.30;;;2.50;;
22660;SDS011;11497;52.222;21.246;2023-06-05T05:42:42;8.30;;;2.58;;
22660;SDS011;11497;52.222;21.246;2023-06-05T05:45:10;11.18;;;2.65;;
22660;SDS011;11497;52.222;21.246;2023-06-05T05:47:38;7.53;;;2.67;;
22660;SDS011;11497;52.222;21.246;2023-06-05T05:50:06;7.00;;;2.78;;
22660;SDS011;11497;52.222;21.246;2023-06-05T05:52:34;4.20;;;2.30;;
22660;SDS011;11497;52.222;21.246;2023-06-05T05:55:02;7.40;;;2.45;;
22660;SDS011;11497;52.222;21.246;2023-06-05T05:57:30;7.20;;;2.67;;
22660;SDS011;11497;52.222;21.246;2023-06-05T05:59:58;7.38;;;2.72;;
22660;SDS011;11497;52.222;21.246;2023-06-05T06:02:25;6.10;;;2.80;;
22660;SDS011;11497;52.222;21.246;2023-06-05T06:04:54;6.72;;;2.65;;
22660;SDS011;11497;52.222;21.246;2023-06-05T06:07:23;5.63;;;2.40;;
22660;SDS011;11497;52.222;21.246;2023-06-05T06:09:52;6.38;;;2.67;;
22660;SDS011;11497;52.222;21.246;2023-06-05T06:12:20;5.80;;;2.70;;
22660;SDS011;11497;52.222;21.246;2023-06-05T06:14:48;7.15;;;2.67;;
22660;SDS011;11497;52.222;21.246;2023-06-05T06:17:16;10.93;;;3.00;;
22660;SDS011;11497;52.222;21.246;2023-06-05T06:19:44;10.35;;;2.95;;
22660;SDS011;11497;52.222;21.246;2023-06-05T06:22:15;7.03;;;3.10;;
22660;SDS011;11497;52.222;21.246;2023-06-05T06:24:42;4.18;;;2.72;;
22660;SDS011;11497;52.222;21.246;2023-06-05T06:27:12;6.35;;;2.72;;
22660;SDS011;11497;52.222;21.246;2023-06-05T06:29:46;4.93;;;2.42;;
22660;SDS011;11497;52.222;21.246;2023-06-05T06:32:17;4.18;;;2.40;;
22660;SDS011;11497;52.222;21.246;2023-06-05T06:34:45;6.50;;;2.40;;
22660;SDS011;11497;52.222;21.246;2023-06-05T06:37:13;14.88;;;2.70;;
22660;SDS011;11497;52.222;21.246;2023-06-05T06:39:42;9.65;;;2.67;;
22660;SDS011;11497;52.222;21.246;2023-06-05T06:42:10;8.50;;;2.60;;
22660;SDS011;11497;52.222;21.246;2023-06-05T06:44:51;12.25;;;2.28;;
22660;SDS011;11497;52.222;21.246;2023-06-05T06:47:23;8.57;;;2.40;;
22660;SDS011;11497;52.222;21.246;2023-06-05T06:49:52;6.20;;;2.20;;
22660;SDS011;11497;52.222;21.246;2023-06-05T06:52:21;3.10;;;2.25;;
22660;SDS011;11497;52.222;21.246;2023-06-05T06:54:51;5.53;;;2.10;;
22660;SDS011;11497;52.222;21.246;2023-06-05T06:57:19;29.25;;;4.50;;
22660;SDS011;11497;52.222;21.246;2023-06-05T06:59:47;7.68;;;2.10;;
22660;SDS011;11497;52.222;21.246;2023-06-05T07:02:16;5.13;;;1.67;;
22660;SDS011;11497;52.222;21.246;2023-06-05T07:04:45;20.80;;;2.75;;
22660;SDS011;11497;52.222;21.246;2023-06-05T07:07:14;3.65;;;1.55;;
22660;SDS011;11497;52.222;21.246;2023-06-05T07:09:44;44.45;;;4.32;;
22660;SDS011;11497;52.222;21.246;2023-06-05T07:12:13;6.45;;;1.85;;
22660;SDS011;11497;52.222;21.246;2023-06-05T07:14:41;2.13;;;0.95;;
22660;SDS011;11497;52.222;21.246;2023-06-05T07:17:09;2.20;;;1.27;;
22660;SDS011;11497;52.222;21.246;2023-06-05T07:19:37;1.13;;;0.80;;
22660;SDS011;11497;52.222;21.246;2023-06-05T07:22:06;3.00;;;1.48;;
22660;SDS011;11497;52.222;21.246;2023-06-05T07:24:34;4.88;;;1.30;;
22660;SDS011;11497;52.222;21.246;2023-06-05T07:27:03;10.88;;;1.90;;
22660;SDS011;11497;52.222;21.246;2023-06-05T07:29:32;5.97;;;1.58;;
22660;SDS011;11497;52.222;21.246;2023-06-05T07:32:00;11.50;;;1.70;;
22660;SDS011;11497;52.222;21.246;2023-06-05T07:34:32;3.88;;;1.30;;
22660;SDS011;11497;52.222;21.246;2023-06-05T07:37:01;6.95;;;1.30;;
22660;SDS011;11497;52.222;21.246;2023-06-05T07:39:29;4.30;;;1.58;;
22660;SDS011;11497;52.222;21.246;2023-06-05T07:41:57;3.65;;;1.20;;
22660;SDS011;11497;52.222;21.246;2023-06-05T07:44:25;1.45;;;1.10;;
22660;SDS011;11497;52.222;21.246;2023-06-05T07:46:53;5.53;;;1.40;;
22660;SDS011;11497;52.222;21.246;2023-06-05T07:49:21;3.35;;;1.05;;
22660;SDS011;11497;52.222;21.246;2023-06-05T07:51:50;3.45;;;1.40;;
22660;SDS011;11497;52.222;21.246;2023-06-05T07:54:18;4.82;;;1.27;;
22660;SDS011;11497;52.222;21.246;2023-06-05T07:56:48;4.93;;;1.42;;
22660;SDS011;11497;52.222;21.246;2023-06-05T07:59:17;4.95;;;1.10;;
22660;SDS011;11497;52.222;21.246;2023-06-05T08:01:51;2.45;;;1.17;;
22660;SDS011;11497;52.222;21.246;2023-06-05T08:04:19;3.10;;;1.13;;
22660;SDS011;11497;52.222;21.246;2023-06-05T08:06:49;3.60;;;1.00;;
22660;SDS011;11497;52.222;21.246;2023-06-05T08:09:16;1.33;;;1.10;;
22660;SDS011;11497;52.222;21.246;2023-06-05T08:11:45;3.50;;;1.40;;
22660;SDS011;11497;52.222;21.246;2023-06-05T08:14:12;3.47;;;1.17;;
22660;SDS011;11497;52.222;21.246;2023-06-05T08:16:41;2.25;;;1.27;;
22660;SDS011;11497;52.222;21.246;2023-06-05T08:19:08;2.38;;;1.48;;
22660;SDS011;11497;52.222;21.246;2023-06-05T08:21:37;4.63;;;1.30;;
22660;SDS011;11497;52.222;21.246;2023-06-05T08:24:04;2.97;;;1.60;;
22660;SDS011;11497;52.222;21.246;2023-06-05T08:26:33;8.18;;;1.52;;
22660;SDS011;11497;52.222;21.246;2023-06-05T08:29:01;4.53;;;1.95;;
22660;SDS011;11497;52.222;21.246;2023-06-05T08:31:30;4.72;;;1.27;;
22660;SDS011;11497;52.222;21.246;2023-06-05T08:34:00;5.43;;;1.38;;
22660;SDS011;11497;52.222;21.246;2023-06-05T08:36:28;3.92;;;1.60;;
22660;SDS011;11497;52.222;21.246;2023-06-05T08:38:59;4.40;;;1.55;;
22660;SDS011;11497;52.222;21.246;2023-06-05T08:41:28;3.35;;;1.70;;
22660;SDS011;11497;52.222;21.246;2023-06-05T08:44:01;4.38;;;1.35;;
22660;SDS011;11497;52.222;21.246;2023-06-05T08:46:30;3.75;;;1.20;;
22660;SDS011;11497;52.222;21.246;2023-06-05T08:48:58;3.42;;;1.40;;
22660;SDS011;11497;52.222;21.246;2023-06-05T08:51:34;4.25;;;1.10;;
22660;SDS011;11497;52.222;21.246;2023-06-05T08:54:03;6.20;;;1.67;;
22660;SDS011;11497;52.222;21.246;2023-06-05T08:56:36;3.60;;;1.23;;
22660;SDS011;11497;52.222;21.246;2023-06-05T08:59:05;2.33;;;1.20;;
22660;SDS011;11497;52.222;21.246;2023-06-05T09:01:34;1.73;;;1.10;;
22660;SDS011;11497;52.222;21.246;2023-06-05T09:04:04;1.75;;;1.25;;
22660;SDS011;11497;52.222;21.246;2023-06-05T09:06:32;2.92;;;1.17;;
22660;SDS011;11497;52.222;21.246;2023-06-05T09:09:00;1.92;;;1.15;;
22660;SDS011;11497;52.222;21.246;2023-06-05T09:11:29;10.93;;;1.65;;
22660;SDS011;11497;52.222;21.246;2023-06-05T09:13:59;4.45;;;1.13;;
22660;SDS011;11497;52.222;21.246;2023-06-05T09:16:38;3.35;;;1.20;;
22660;SDS011;11497;52.222;21.246;2023-06-05T09:19:09;3.10;;;1.30;;
22660;SDS011;11497;52.222;21.246;2023-06-05T09:21:38;4.65;;;1.23;;
22660;SDS011;11497;52.222;21.246;2023-06-05T09:24:19;2.08;;;1.17;;
22660;SDS011;11497;52.222;21.246;2023-06-05T09:26:50;2.47;;;1.20;;
22660;SDS011;11497;52.222;21.246;2023-06-05T09:29:21;4.05;;;1.67;;
22660;SDS011;11497;52.222;21.246;2023-06-05T09:31:50;2.25;;;1.10;;
22660;SDS011;11497;52.222;21.246;2023-06-05T09:34:22;5.88;;;1.30;;
22660;SDS011;11497;52.222;21.246;2023-06-05T09:37:01;2.85;;;1.30;;
22660;SDS011;11497;52.222;21.246;2023-06-05T09:39:30;6.35;;;1.40;;
22660;SDS011;11497;52.222;21.246;2023-06-05T09:41:59;4.13;;;1.35;;
22660;SDS011;11497;52.222;21.246;2023-06-05T09:44:28;4.28;;;1.20;;
22660;SDS011;11497;52.222;21.246;2023-06-05T09:49:31;1.95;;;1.10;;
22660;SDS011;11497;52.222;21.246;2023-06-05T09:52:13;3.35;;;1.55;;
22660;SDS011;11497;52.222;21.246;2023-06-05T09:54:44;3.47;;;1.02;;
22660;SDS011;11497;52.222;21.246;2023-06-05T09:57:14;3.28;;;1.15;;
22660;SDS011;11497;52.222;21.246;2023-06-05T09:59:52;3.22;;;1.20;;
22660;SDS011;11497;52.222;21.246;2023-06-05T10:02:23;6.47;;;1.75;;
22660;SDS011;11497;52.222;21.246;2023-06-05T10:05:01;2.15;;;1.30;;
22660;SDS011;11497;52.222;21.246;2023-06-05T10:07:31;4.05;;;1.63;;
22660;SDS011;11497;52.222;21.246;2023-06-05T10:09:59;3.90;;;1.30;;
22660;SDS011;11497;52.222;21.246;2023-06-05T10:12:31;2.47;;;1.33;;
22660;SDS011;11497;52.222;21.246;2023-06-05T10:15:10;3.35;;;1.40;;
22660;SDS011;11497;52.222;21.246;2023-06-05T10:18:12;4.20;;;1.30;;
22660;SDS011;11497;52.222;21.246;2023-06-05T10:20:59;2.80;;;1.48;;
22660;SDS011;11497;52.222;21.246;2023-06-05T10:23:34;6.13;;;1.30;;
22660;SDS011;11497;52.222;21.246;2023-06-05T10:26:04;1.42;;;1.33;;
22660;SDS011;11497;52.222;21.246;2023-06-05T10:28:49;2.55;;;1.20;;
22660;SDS011;11497;52.222;21.246;2023-06-05T10:31:58;1.73;;;1.60;;
22660;SDS011;11497;52.222;21.246;2023-06-05T10:41:36;9.32;;;1.35;;
22660;SDS011;11497;52.222;21.246;2023-06-05T10:44:06;5.18;;;1.40;;
22660;SDS011;11497;52.222;21.246;2023-06-05T10:46:35;4.63;;;1.90;;
22660;SDS011;11497;52.222;21.246;2023-06-05T10:52:07;1.52;;;1.35;;
22660;SDS011;11497;52.222;21.246;2023-06-05T10:55:23;2.25;;;1.15;;
22660;SDS011;11497;52.222;21.246;2023-06-05T10:59:10;3.40;;;1.60;;
22660;SDS011;11497;52.222;21.246;2023-06-05T11:11:06;5.03;;;1.60;;
22660;SDS011;11497;52.222;21.246;2023-06-05T11:14:04;9.95;;;1.77;;
22660;SDS011;11497;52.222;21.246;2023-06-05T11:16:53;3.10;;;1.42;;
22660;SDS011;11497;52.222;21.246;2023-06-05T11:19:56;2.33;;;1.42;;
22660;SDS011;11497;52.222;21.246;2023-06-05T11:25:28;2.50;;;1.40;;
22660;SDS011;11497;52.222;21.246;2023-06-05T11:28:16;2.38;;;1.52;;
22660;SDS011;11497;52.222;21.246;2023-06-05T11:31:21;4.68;;;1.73;;
22660;SDS011;11497;52.222;21.246;2023-06-05T11:34:16;4.72;;;1.50;;
22660;SDS011;11497;52.222;21.246;2023-06-05T11:37:25;2.35;;;1.60;;
22660;SDS011;11497;52.222;21.246;2023-06-05T11:40:36;3.50;;;1.60;;
22660;SDS011;11497;52.222;21.246;2023-06-05T11:43:45;4.22;;;1.80;;
22660;SDS011;11497;52.222;21.246;2023-06-05T11:46:37;6.25;;;1.77;;
22660;SDS011;11497;52.222;21.246;2023-06-05T11:49:26;5.10;;;1.52;;
22660;SDS011;11497;52.222;21.246;2023-06-05T11:52:04;2.17;;;1.40;;
22660;SDS011;11497;52.222;21.246;2023-06-05T11:54:41;5.15;;;1.80;;
22660;SDS011;11497;52.222;21.246;2023-06-05T11:58:01;2.17;;;1.50;;
22660;SDS011;11497;52.222;21.246;2023-06-05T12:04:08;5.43;;;1.60;;
22660;SDS011;11497;52.222;21.246;2023-06-05T12:07:02;3.65;;;1.60;;
22660;SDS011;11497;52.222;21.246;2023-06-05T12:09:50;3.65;;;1.42;;
22660;SDS011;11497;52.222;21.246;2023-06-05T12:12:55;2.65;;;1.50;;
22660;SDS011;11497;52.222;21.246;2023-06-05T12:16:03;2.88;;;1.50;;
22660;SDS011;11497;52.222;21.246;2023-06-05T12:18:52;5.57;;;1.48;;
22660;SDS011;11497;52.222;21.246;2023-06-05T12:21:43;3.17;;;1.60;;
22660;SDS011;11497;52.222;21.246;2023-06-05T12:24:23;8.77;;;1.60;;
22660;SDS011;11497;52.222;21.246;2023-06-05T12:27:11;2.35;;;1.70;;
22660;SDS011;11497;52.222;21.246;2023-06-05T12:29:39;1.80;;;1.42;;
22660;SDS011;11497;52.222;21.246;2023-06-05T12:32:24;2.80;;;1.50;;
22660;SDS011;11497;52.222;21.246;2023-06-05T12:34:53;4.93;;;1.90;;
22660;SDS011;11497;52.222;21.246;2023-06-05T12:37:31;4.53;;;1.63;;
22660;SDS011;11497;52.222;21.246;2023-06-05T12:40:04;3.95;;;1.70;;
22660;SDS011;11497;52.222;21.246;2023-06-05T12:42:37;2.13;;;1.52;;
22660;SDS011;11497;52.222;21.246;2023-06-05T12:45:07;3.97;;;1.63;;
22660;SDS011;11497;52.222;21.246;2023-06-05T12:47:37;3.33;;;1.63;;
22660;SDS011;11497;52.222;21.246;2023-06-05T12:50:05;4.43;;;1.60;;
22660;SDS011;11497;52.222;21.246;2023-06-05T12:55:07;3.72;;;1.67;;
22660;SDS011;11497;52.222;21.246;2023-06-05T12:57:36;3.97;;;1.73;;
22660;SDS011;11497;52.222;21.246;2023-06-05T13:00:04;3.53;;;1.35;;
22660;SDS011;11497;52.222;21.246;2023-06-05T13:02:41;2.42;;;1.30;;
22660;SDS011;11497;52.222;21.246;2023-06-05T13:05:14;5.70;;;1.90;;
22660;SDS011;11497;52.222;21.246;2023-06-05T13:07:43;2.35;;;1.67;;
22660;SDS011;11497;52.222;21.246;2023-06-05T13:10:11;5.72;;;1.90;;
22660;SDS011;11497;52.222;21.246;2023-06-05T13:12:39;2.60;;;1.88;;
22660;SDS011;11497;52.222;21.246;2023-06-05T13:15:09;2.47;;;1.67;;
22660;SDS011;11497;52.222;21.246;2023-06-05T13:17:37;4.70;;;2.30;;
22660;SDS011;11497;52.222;21.246;2023-06-05T13:20:05;5.15;;;2.67;;
22660;SDS011;11497;52.222;21.246;2023-06-05T13:22:36;4.30;;;1.88;;
22660;SDS011;11497;52.222;21.246;2023-06-05T13:25:06;5.63;;;1.98;;
22660;SDS011;11497;52.222;21.246;2023-06-05T13:27:36;7.28;;;2.90;;
22660;SDS011;11497;52.222;21.246;2023-06-05T13:30:03;6.85;;;2.20;;
22660;SDS011;11497;52.222;21.246;2023-06-05T13:32:34;2.88;;;1.90;;
22660;SDS011;11497;52.222;21.246;2023-06-05T13:35:03;4.47;;;2.92;;
22660;SDS011;11497;52.222;21.246;2023-06-05T13:37:33;1.88;;;1.30;;
22660;SDS011;11497;52.222;21.246;2023-06-05T13:40:00;3.85;;;2.00;;
22660;SDS011;11497;52.222;21.246;2023-06-05T13:42:32;4.22;;;1.60;;
22660;SDS011;11497;52.222;21.246;2023-06-05T13:45:00;4.00;;;1.80;;
22660;SDS011;11497;52.222;21.246;2023-06-05T13:47:28;4.55;;;1.83;;
22660;SDS011;11497;52.222;21.246;2023-06-05T13:49:56;4.60;;;2.03;;
22660;SDS011;11497;52.222;21.246;2023-06-05T13:52:24;4.68;;;1.80;;
22660;SDS011;11497;52.222;21.246;2023-06-05T13:54:52;3.10;;;1.80;;
22660;SDS011;11497;52.222;21.246;2023-06-05T13:57:20;2.15;;;1.65;;
22660;SDS011;11497;52.222;21.246;2023-06-05T13:59:48;1.88;;;1.60;;
22660;SDS011;11497;52.222;21.246;2023-06-05T14:02:16;6.60;;;2.13;;
22660;SDS011;11497;52.222;21.246;2023-06-05T14:04:44;2.72;;;1.73;;
22660;SDS011;11497;52.222;21.246;2023-06-05T14:07:11;2.78;;;1.70;;
22660;SDS011;11497;52.222;21.246;2023-06-05T14:09:39;5.28;;;1.85;;
22660;SDS011;11497;52.222;21.246;2023-06-05T14:12:08;7.95;;;1.88;;
22660;SDS011;11497;52.222;21.246;2023-06-05T14:14:36;4.18;;;2.00;;
22660;SDS011;11497;52.222;21.246;2023-06-05T14:17:04;3.97;;;1.90;;
22660;SDS011;11497;52.222;21.246;2023-06-05T14:19:32;2.83;;;1.70;;
22660;SDS011;11497;52.222;21.246;2023-06-05T14:22:00;6.03;;;1.90;;
22660;SDS011;11497;52.222;21.246;2023-06-05T14:24:28;3.70;;;1.80;;
22660;SDS011;11497;52.222;21.246;2023-06-05T14:26:56;7.25;;;1.95;;
22660;SDS011;11497;52.222;21.246;2023-06-05T14:29:23;9.75;;;2.20;;
22660;SDS011;11497;52.222;21.246;2023-06-05T14:31:51;5.78;;;1.67;;
22660;SDS011;11497;52.222;21.246;2023-06-05T14:34:19;3.40;;;1.50;;
22660;SDS011;11497;52.222;21.246;2023-06-05T14:36:47;6.22;;;1.80;;
22660;SDS011;11497;52.222;21.246;2023-06-05T14:39:18;11.90;;;2.47;;
22660;SDS011;11497;52.222;21.246;2023-06-05T14:41:49;5.00;;;2.00;;
22660;SDS011;11497;52.222;21.246;2023-06-05T14:44:16;4.18;;;1.63;;
22660;SDS011;11497;52.222;21.246;2023-06-05T14:46:49;3.88;;;1.52;;
22660;SDS011;11497;52.222;21.246;2023-06-05T14:49:20;3.65;;;1.95;;
22660;SDS011;11497;52.222;21.246;2023-06-05T14:51:48;2.40;;;1.90;;
22660;SDS011;11497;52.222;21.246;2023-06-05T14:54:16;3.13;;;2.10;;
22660;SDS011;11497;52.222;21.246;2023-06-05T14:56:44;4.47;;;2.10;;
22660;SDS011;11497;52.222;21.246;2023-06-05T14:59:12;6.90;;;1.80;;
22660;SDS011;11497;52.222;21.246;2023-06-05T15:01:46;3.38;;;1.63;;
22660;SDS011;11497;52.222;21.246;2023-06-05T15:04:14;7.22;;;1.77;;
22660;SDS011;11497;52.222;21.246;2023-06-05T15:06:42;3.95;;;2.03;;
22660;SDS011;11497;52.222;21.246;2023-06-05T15:09:10;7.47;;;1.83;;
22660;SDS011;11497;52.222;21.246;2023-06-05T15:11:38;3.95;;;1.90;;
22660;SDS011;11497;52.222;21.246;2023-06-05T15:14:06;3.03;;;1.65;;
22660;SDS011;11497;52.222;21.246;2023-06-05T15:16:33;4.43;;;2.10;;
22660;SDS011;11497;52.222;21.246;2023-06-05T15:19:08;3.88;;;1.80;;
22660;SDS011;11497;52.222;21.246;2023-06-05T15:21:36;4.80;;;2.13;;
22660;SDS011;11497;52.222;21.246;2023-06-05T15:24:04;5.10;;;1.80;;
22660;SDS011;11497;52.222;21.246;2023-06-05T15:26:33;5.22;;;1.90;;
22660;SDS011;11497;52.222;21.246;2023-06-05T15:29:01;3.90;;;1.58;;